Terminal Aerodrome Forecast
Issued by NWS Cleveland, OH

Home | Current Version | Previous Version | Text Only | Print | Product List | Glossary Off
Versions: 1 2 3 4 5 6 7 8 9 10 11 12 13 14 15 16 17 18 19 20 21 22

000
FTUS41 KCLE 070200 AAA
TAFMFD
TAF AMD
KMFD 070234Z 0703/0724 20010KT P6SM BKN045
     FM071100 21015KT P6SM VCTS OVC045CB
      TEMPO 0712/0715 5SM -SHRA OVC040
     FM071500 23012G22KT P6SM BKN045
     FM071800 23015G25KT P6SM VCTS BKN045CB
     FM072300 25012KT P6SM SCT045 BKN250=

USA.gov is the U.S. government's official web portal to all federal, state and local government web resources and services.